sensor_id;sensor_type;location;lat;lon;timestamp;P1;durP1;ratioP1;P2;durP2;ratioP2
6485;SDS011;3276;48.490;9.222;2023-09-18T00:01:00;6.10;;;2.73;;
6485;SDS011;3276;48.490;9.222;2023-09-18T00:03:26;5.40;;;3.17;;
6485;SDS011;3276;48.490;9.222;2023-09-18T00:05:52;3.93;;;2.73;;
6485;SDS011;3276;48.490;9.222;2023-09-18T00:08:18;3.60;;;3.20;;
6485;SDS011;3276;48.490;9.222;2023-09-18T00:10:48;3.77;;;3.43;;
6485;SDS011;3276;48.490;9.222;2023-09-18T00:13:15;3.37;;;2.60;;
6485;SDS011;3276;48.490;9.222;2023-09-18T00:15:41;2.77;;;2.43;;
6485;SDS011;3276;48.490;9.222;2023-09-18T00:18:09;2.47;;;2.27;;
6485;SDS011;3276;48.490;9.222;2023-09-18T00:20:34;3.47;;;2.73;;
6485;SDS011;3276;48.490;9.222;2023-09-18T00:23:00;5.50;;;2.83;;
6485;SDS011;3276;48.490;9.222;2023-09-18T00:25:25;2.93;;;2.60;;
6485;SDS011;3276;48.490;9.222;2023-09-18T00:27:51;3.30;;;2.70;;
6485;SDS011;3276;48.490;9.222;2023-09-18T00:30:17;3.53;;;3.13;;
6485;SDS011;3276;48.490;9.222;2023-09-18T00:32:42;3.70;;;2.50;;
6485;SDS011;3276;48.490;9.222;2023-09-18T00:35:08;4.37;;;3.20;;
6485;SDS011;3276;48.490;9.222;2023-09-18T00:37:34;4.03;;;3.00;;
6485;SDS011;3276;48.490;9.222;2023-09-18T00:40:01;3.43;;;2.80;;
6485;SDS011;3276;48.490;9.222;2023-09-18T00:42:27;4.07;;;3.13;;
6485;SDS011;3276;48.490;9.222;2023-09-18T00:44:52;3.43;;;2.50;;
6485;SDS011;3276;48.490;9.222;2023-09-18T00:47:18;4.00;;;3.07;;
6485;SDS011;3276;48.490;9.222;2023-09-18T00:49:45;6.90;;;2.50;;
6485;SDS011;3276;48.490;9.222;2023-09-18T00:52:12;3.00;;;2.13;;
6485;SDS011;3276;48.490;9.222;2023-09-18T00:54:39;4.70;;;3.07;;
6485;SDS011;3276;48.490;9.222;2023-09-18T00:57:07;4.53;;;2.93;;
6485;SDS011;3276;48.490;9.222;2023-09-18T00:59:33;3.87;;;2.40;;
6485;SDS011;3276;48.490;9.222;2023-09-18T01:01:59;5.40;;;2.90;;
6485;SDS011;3276;48.490;9.222;2023-09-18T01:04:25;4.13;;;2.93;;
6485;SDS011;3276;48.490;9.222;2023-09-18T01:06:53;3.57;;;2.50;;
6485;SDS011;3276;48.490;9.222;2023-09-18T01:09:21;5.73;;;2.87;;
6485;SDS011;3276;48.490;9.222;2023-09-18T01:12:08;3.90;;;3.20;;
6485;SDS011;3276;48.490;9.222;2023-09-18T01:17:08;5.37;;;2.77;;
6485;SDS011;3276;48.490;9.222;2023-09-18T01:22:05;4.17;;;2.43;;
6485;SDS011;3276;48.490;9.222;2023-09-18T01:24:32;4.33;;;3.17;;
6485;SDS011;3276;48.490;9.222;2023-09-18T01:26:58;4.10;;;3.10;;
6485;SDS011;3276;48.490;9.222;2023-09-18T01:29:24;5.60;;;3.23;;
6485;SDS011;3276;48.490;9.222;2023-09-18T01:31:49;5.23;;;3.33;;
6485;SDS011;3276;48.490;9.222;2023-09-18T01:34:16;5.07;;;2.70;;
6485;SDS011;3276;48.490;9.222;2023-09-18T01:36:46;4.40;;;3.60;;
6485;SDS011;3276;48.490;9.222;2023-09-18T01:39:12;3.50;;;2.70;;
6485;SDS011;3276;48.490;9.222;2023-09-18T01:41:38;4.07;;;3.10;;
6485;SDS011;3276;48.490;9.222;2023-09-18T01:44:05;4.47;;;2.70;;
6485;SDS011;3276;48.490;9.222;2023-09-18T01:46:32;5.50;;;3.03;;
6485;SDS011;3276;48.490;9.222;2023-09-18T01:49:01;5.20;;;3.80;;
6485;SDS011;3276;48.490;9.222;2023-09-18T01:51:28;3.93;;;3.20;;
6485;SDS011;3276;48.490;9.222;2023-09-18T01:53:55;6.93;;;3.90;;
6485;SDS011;3276;48.490;9.222;2023-09-18T01:56:20;7.90;;;2.60;;
6485;SDS011;3276;48.490;9.222;2023-09-18T01:58:47;8.83;;;2.97;;
6485;SDS011;3276;48.490;9.222;2023-09-18T02:01:12;3.23;;;2.73;;
6485;SDS011;3276;48.490;9.222;2023-09-18T02:03:38;4.83;;;3.33;;
6485;SDS011;3276;48.490;9.222;2023-09-18T02:06:07;4.00;;;2.53;;
6485;SDS011;3276;48.490;9.222;2023-09-18T02:08:33;8.40;;;2.70;;
6485;SDS011;3276;48.490;9.222;2023-09-18T02:10:59;5.20;;;3.17;;
6485;SDS011;3276;48.490;9.222;2023-09-18T02:13:25;5.87;;;3.30;;
6485;SDS011;3276;48.490;9.222;2023-09-18T02:15:51;4.03;;;2.90;;
6485;SDS011;3276;48.490;9.222;2023-09-18T02:18:16;5.40;;;2.90;;
6485;SDS011;3276;48.490;9.222;2023-09-18T02:20:42;5.90;;;2.90;;
6485;SDS011;3276;48.490;9.222;2023-09-18T02:23:12;5.03;;;2.93;;
6485;SDS011;3276;48.490;9.222;2023-09-18T02:25:38;4.27;;;3.57;;
6485;SDS011;3276;48.490;9.222;2023-09-18T02:28:05;3.53;;;3.00;;
6485;SDS011;3276;48.490;9.222;2023-09-18T02:30:31;3.73;;;2.57;;
6485;SDS011;3276;48.490;9.222;2023-09-18T02:32:56;4.00;;;2.47;;
6485;SDS011;3276;48.490;9.222;2023-09-18T02:35:22;3.90;;;2.30;;
6485;SDS011;3276;48.490;9.222;2023-09-18T02:37:47;5.20;;;2.93;;
6485;SDS011;3276;48.490;9.222;2023-09-18T02:40:13;3.43;;;2.60;;
6485;SDS011;3276;48.490;9.222;2023-09-18T02:42:39;5.90;;;3.00;;
6485;SDS011;3276;48.490;9.222;2023-09-18T02:45:04;4.73;;;2.63;;
6485;SDS011;3276;48.490;9.222;2023-09-18T02:47:30;5.70;;;2.90;;
6485;SDS011;3276;48.490;9.222;2023-09-18T02:49:57;5.50;;;2.33;;
6485;SDS011;3276;48.490;9.222;2023-09-18T02:52:22;6.53;;;2.70;;
6485;SDS011;3276;48.490;9.222;2023-09-18T02:54:48;3.80;;;2.90;;
6485;SDS011;3276;48.490;9.222;2023-09-18T02:57:13;3.50;;;2.50;;
6485;SDS011;3276;48.490;9.222;2023-09-18T02:59:40;6.23;;;2.87;;
6485;SDS011;3276;48.490;9.222;2023-09-18T03:02:05;5.13;;;2.80;;
6485;SDS011;3276;48.490;9.222;2023-09-18T03:04:31;2.80;;;2.50;;
6485;SDS011;3276;48.490;9.222;2023-09-18T03:06:56;4.17;;;2.50;;
6485;SDS011;3276;48.490;9.222;2023-09-18T03:09:22;4.03;;;3.20;;
6485;SDS011;3276;48.490;9.222;2023-09-18T03:11:47;5.00;;;2.63;;
6485;SDS011;3276;48.490;9.222;2023-09-18T03:14:13;3.93;;;2.37;;
6485;SDS011;3276;48.490;9.222;2023-09-18T03:16:39;7.40;;;3.50;;
6485;SDS011;3276;48.490;9.222;2023-09-18T03:19:04;5.33;;;2.63;;
6485;SDS011;3276;48.490;9.222;2023-09-18T03:21:29;7.47;;;2.80;;
6485;SDS011;3276;48.490;9.222;2023-09-18T03:23:58;9.40;;;3.23;;
6485;SDS011;3276;48.490;9.222;2023-09-18T03:26:24;5.03;;;3.27;;
6485;SDS011;3276;48.490;9.222;2023-09-18T03:28:50;4.10;;;3.07;;
6485;SDS011;3276;48.490;9.222;2023-09-18T03:31:15;4.00;;;2.53;;
6485;SDS011;3276;48.490;9.222;2023-09-18T03:33:41;4.73;;;3.00;;
6485;SDS011;3276;48.490;9.222;2023-09-18T03:36:06;4.07;;;3.40;;
6485;SDS011;3276;48.490;9.222;2023-09-18T03:38:33;6.70;;;3.30;;
6485;SDS011;3276;48.490;9.222;2023-09-18T03:41:00;3.93;;;2.90;;
6485;SDS011;3276;48.490;9.222;2023-09-18T03:43:26;3.83;;;2.90;;
6485;SDS011;3276;48.490;9.222;2023-09-18T03:45:51;5.53;;;2.57;;
6485;SDS011;3276;48.490;9.222;2023-09-18T03:48:17;4.43;;;3.00;;
6485;SDS011;3276;48.490;9.222;2023-09-18T03:50:42;4.97;;;3.27;;
6485;SDS011;3276;48.490;9.222;2023-09-18T03:53:09;3.70;;;2.60;;
6485;SDS011;3276;48.490;9.222;2023-09-18T03:55:36;3.50;;;2.40;;
6485;SDS011;3276;48.490;9.222;2023-09-18T03:58:02;3.60;;;2.40;;
6485;SDS011;3276;48.490;9.222;2023-09-18T04:00:30;4.30;;;2.77;;
6485;SDS011;3276;48.490;9.222;2023-09-18T04:02:55;3.00;;;2.40;;
6485;SDS011;3276;48.490;9.222;2023-09-18T04:05:21;8.53;;;2.73;;
6485;SDS011;3276;48.490;9.222;2023-09-18T04:07:46;4.20;;;2.53;;
6485;SDS011;3276;48.490;9.222;2023-09-18T04:10:12;5.43;;;2.47;;
6485;SDS011;3276;48.490;9.222;2023-09-18T04:12:47;9.77;;;3.40;;
6485;SDS011;3276;48.490;9.222;2023-09-18T04:15:15;3.60;;;2.10;;
6485;SDS011;3276;48.490;9.222;2023-09-18T04:17:42;4.47;;;2.60;;
6485;SDS011;3276;48.490;9.222;2023-09-18T04:20:08;4.00;;;2.60;;
6485;SDS011;3276;48.490;9.222;2023-09-18T04:22:34;7.27;;;3.20;;
6485;SDS011;3276;48.490;9.222;2023-09-18T04:24:59;12.37;;;3.03;;
6485;SDS011;3276;48.490;9.222;2023-09-18T04:27:25;5.00;;;2.80;;
6485;SDS011;3276;48.490;9.222;2023-09-18T04:29:51;4.97;;;2.70;;
6485;SDS011;3276;48.490;9.222;2023-09-18T04:32:16;5.20;;;3.10;;
6485;SDS011;3276;48.490;9.222;2023-09-18T04:34:42;8.77;;;3.30;;
6485;SDS011;3276;48.490;9.222;2023-09-18T04:37:07;5.63;;;2.70;;
6485;SDS011;3276;48.490;9.222;2023-09-18T04:39:33;7.63;;;2.77;;
6485;SDS011;3276;48.490;9.222;2023-09-18T04:42:00;7.17;;;2.87;;
6485;SDS011;3276;48.490;9.222;2023-09-18T04:44:28;7.17;;;2.73;;
6485;SDS011;3276;48.490;9.222;2023-09-18T04:46:54;7.80;;;3.30;;
6485;SDS011;3276;48.490;9.222;2023-09-18T04:49:19;6.07;;;3.00;;
6485;SDS011;3276;48.490;9.222;2023-09-18T04:51:45;7.03;;;2.03;;
6485;SDS011;3276;48.490;9.222;2023-09-18T04:54:11;6.57;;;2.40;;
6485;SDS011;3276;48.490;9.222;2023-09-18T04:56:37;7.70;;;3.23;;
6485;SDS011;3276;48.490;9.222;2023-09-18T04:59:02;3.63;;;2.73;;
6485;SDS011;3276;48.490;9.222;2023-09-18T05:01:28;5.03;;;2.00;;
6485;SDS011;3276;48.490;9.222;2023-09-18T05:03:55;6.20;;;2.60;;
6485;SDS011;3276;48.490;9.222;2023-09-18T05:06:20;5.60;;;2.97;;
6485;SDS011;3276;48.490;9.222;2023-09-18T05:08:46;4.57;;;2.40;;
6485;SDS011;3276;48.490;9.222;2023-09-18T05:11:11;11.33;;;3.50;;
6485;SDS011;3276;48.490;9.222;2023-09-18T05:13:37;7.00;;;2.70;;
6485;SDS011;3276;48.490;9.222;2023-09-18T05:16:02;8.07;;;2.63;;
6485;SDS011;3276;48.490;9.222;2023-09-18T05:18:28;4.30;;;2.77;;
6485;SDS011;3276;48.490;9.222;2023-09-18T05:20:54;8.13;;;2.00;;
6485;SDS011;3276;48.490;9.222;2023-09-18T05:23:20;3.83;;;2.50;;
6485;SDS011;3276;48.490;9.222;2023-09-18T05:25:45;3.87;;;2.30;;
6485;SDS011;3276;48.490;9.222;2023-09-18T05:28:11;5.37;;;3.20;;
6485;SDS011;3276;48.490;9.222;2023-09-18T05:30:36;5.93;;;3.37;;
6485;SDS011;3276;48.490;9.222;2023-09-18T05:33:06;9.40;;;4.43;;
6485;SDS011;3276;48.490;9.222;2023-09-18T05:38:16;8.60;;;2.53;;
6485;SDS011;3276;48.490;9.222;2023-09-18T05:40:42;7.87;;;2.50;;
6485;SDS011;3276;48.490;9.222;2023-09-18T05:43:09;2.97;;;1.83;;
6485;SDS011;3276;48.490;9.222;2023-09-18T05:45:36;6.07;;;2.93;;
6485;SDS011;3276;48.490;9.222;2023-09-18T05:48:02;9.73;;;3.70;;
6485;SDS011;3276;48.490;9.222;2023-09-18T05:50:31;4.60;;;2.47;;
6485;SDS011;3276;48.490;9.222;2023-09-18T05:52:58;7.07;;;2.93;;
6485;SDS011;3276;48.490;9.222;2023-09-18T05:55:25;4.53;;;2.07;;
6485;SDS011;3276;48.490;9.222;2023-09-18T05:57:52;6.97;;;2.80;;
6485;SDS011;3276;48.490;9.222;2023-09-18T06:00:19;4.10;;;2.37;;
6485;SDS011;3276;48.490;9.222;2023-09-18T06:02:44;6.83;;;2.77;;
6485;SDS011;3276;48.490;9.222;2023-09-18T06:05:10;8.47;;;2.77;;
6485;SDS011;3276;48.490;9.222;2023-09-18T06:07:36;6.50;;;3.00;;
6485;SDS011;3276;48.490;9.222;2023-09-18T06:10:02;13.80;;;3.03;;
6485;SDS011;3276;48.490;9.222;2023-09-18T06:12:28;7.30;;;3.40;;
6485;SDS011;3276;48.490;9.222;2023-09-18T06:14:55;6.30;;;2.87;;
6485;SDS011;3276;48.490;9.222;2023-09-18T06:17:20;11.60;;;3.37;;
6485;SDS011;3276;48.490;9.222;2023-09-18T06:19:46;9.83;;;3.80;;
6485;SDS011;3276;48.490;9.222;2023-09-18T06:22:12;5.43;;;2.43;;
6485;SDS011;3276;48.490;9.222;2023-09-18T06:24:38;3.93;;;2.33;;
6485;SDS011;3276;48.490;9.222;2023-09-18T06:27:03;6.13;;;3.33;;
6485;SDS011;3276;48.490;9.222;2023-09-18T06:29:30;4.53;;;2.23;;
6485;SDS011;3276;48.490;9.222;2023-09-18T06:31:56;6.97;;;2.10;;
6485;SDS011;3276;48.490;9.222;2023-09-18T06:34:22;12.30;;;3.83;;
6485;SDS011;3276;48.490;9.222;2023-09-18T06:36:47;9.40;;;2.63;;
6485;SDS011;3276;48.490;9.222;2023-09-18T06:39:14;5.83;;;2.30;;
6485;SDS011;3276;48.490;9.222;2023-09-18T06:41:40;5.97;;;2.80;;
6485;SDS011;3276;48.490;9.222;2023-09-18T06:44:05;7.20;;;3.27;;
6485;SDS011;3276;48.490;9.222;2023-09-18T06:46:31;8.50;;;3.13;;
6485;SDS011;3276;48.490;9.222;2023-09-18T06:48:57;6.50;;;3.10;;
6485;SDS011;3276;48.490;9.222;2023-09-18T06:51:24;5.63;;;2.77;;
6485;SDS011;3276;48.490;9.222;2023-09-18T06:53:52;5.77;;;2.93;;
6485;SDS011;3276;48.490;9.222;2023-09-18T06:56:18;8.13;;;3.13;;
6485;SDS011;3276;48.490;9.222;2023-09-18T06:58:44;14.83;;;4.83;;
6485;SDS011;3276;48.490;9.222;2023-09-18T07:01:11;5.20;;;2.47;;
6485;SDS011;3276;48.490;9.222;2023-09-18T07:03:36;5.03;;;2.80;;
6485;SDS011;3276;48.490;9.222;2023-09-18T07:06:05;12.60;;;3.40;;
6485;SDS011;3276;48.490;9.222;2023-09-18T07:08:30;18.03;;;4.30;;
6485;SDS011;3276;48.490;9.222;2023-09-18T07:10:57;19.40;;;2.63;;
6485;SDS011;3276;48.490;9.222;2023-09-18T07:13:23;6.77;;;3.73;;
6485;SDS011;3276;48.490;9.222;2023-09-18T07:15:49;8.90;;;2.53;;
6485;SDS011;3276;48.490;9.222;2023-09-18T07:18:14;26.27;;;6.77;;
6485;SDS011;3276;48.490;9.222;2023-09-18T07:20:40;10.93;;;2.73;;
6485;SDS011;3276;48.490;9.222;2023-09-18T07:23:06;8.10;;;3.50;;
6485;SDS011;3276;48.490;9.222;2023-09-18T07:25:32;6.23;;;2.60;;
6485;SDS011;3276;48.490;9.222;2023-09-18T07:27:57;7.67;;;2.90;;
6485;SDS011;3276;48.490;9.222;2023-09-18T07:30:23;12.10;;;3.50;;
6485;SDS011;3276;48.490;9.222;2023-09-18T07:32:52;6.07;;;3.60;;
6485;SDS011;3276;48.490;9.222;2023-09-18T07:35:24;6.30;;;2.70;;
6485;SDS011;3276;48.490;9.222;2023-09-18T07:37:50;6.03;;;2.73;;
6485;SDS011;3276;48.490;9.222;2023-09-18T07:40:16;4.10;;;2.80;;
6485;SDS011;3276;48.490;9.222;2023-09-18T07:42:41;7.60;;;3.00;;
6485;SDS011;3276;48.490;9.222;2023-09-18T07:45:11;5.60;;;2.53;;
6485;SDS011;3276;48.490;9.222;2023-09-18T07:47:37;6.00;;;2.40;;
6485;SDS011;3276;48.490;9.222;2023-09-18T07:50:02;6.33;;;3.13;;
6485;SDS011;3276;48.490;9.222;2023-09-18T07:52:28;8.23;;;2.77;;
6485;SDS011;3276;48.490;9.222;2023-09-18T07:54:55;5.93;;;3.30;;
6485;SDS011;3276;48.490;9.222;2023-09-18T07:57:20;5.03;;;2.70;;
6485;SDS011;3276;48.490;9.222;2023-09-18T07:59:48;4.87;;;2.57;;
6485;SDS011;3276;48.490;9.222;2023-09-18T08:02:14;6.10;;;2.50;;
6485;SDS011;3276;48.490;9.222;2023-09-18T08:04:39;6.63;;;3.00;;
6485;SDS011;3276;48.490;9.222;2023-09-18T08:07:05;5.83;;;1.90;;
6485;SDS011;3276;48.490;9.222;2023-09-18T08:09:32;3.87;;;1.70;;
6485;SDS011;3276;48.490;9.222;2023-09-18T08:12:02;6.07;;;1.73;;
6485;SDS011;3276;48.490;9.222;2023-09-18T08:14:28;2.50;;;1.60;;
6485;SDS011;3276;48.490;9.222;2023-09-18T08:16:57;5.50;;;2.33;;
6485;SDS011;3276;48.490;9.222;2023-09-18T08:19:23;9.17;;;2.73;;
6485;SDS011;3276;48.490;9.222;2023-09-18T08:21:51;3.40;;;1.87;;
6485;SDS011;3276;48.490;9.222;2023-09-18T08:24:19;5.73;;;1.80;;
6485;SDS011;3276;48.490;9.222;2023-09-18T08:26:44;4.40;;;2.30;;
6485;SDS011;3276;48.490;9.222;2023-09-18T08:29:10;4.73;;;1.70;;
6485;SDS011;3276;48.490;9.222;2023-09-18T08:31:35;3.07;;;1.53;;
6485;SDS011;3276;48.490;9.222;2023-09-18T08:34:01;5.40;;;1.47;;
6485;SDS011;3276;48.490;9.222;2023-09-18T08:36:26;4.07;;;1.17;;
6485;SDS011;3276;48.490;9.222;2023-09-18T08:38:55;3.70;;;1.77;;
6485;SDS011;3276;48.490;9.222;2023-09-18T08:41:21;4.00;;;1.17;;
6485;SDS011;3276;48.490;9.222;2023-09-18T08:43:52;2.63;;;1.30;;
6485;SDS011;3276;48.490;9.222;2023-09-18T08:46:23;3.67;;;1.10;;
6485;SDS011;3276;48.490;9.222;2023-09-18T08:48:50;2.17;;;1.23;;
6485;SDS011;3276;48.490;9.222;2023-09-18T08:51:17;2.67;;;1.10;;
6485;SDS011;3276;48.490;9.222;2023-09-18T08:53:43;2.70;;;1.17;;
6485;SDS011;3276;48.490;9.222;2023-09-18T08:56:10;4.13;;;1.40;;
6485;SDS011;3276;48.490;9.222;2023-09-18T08:58:40;2.80;;;1.10;;
6485;SDS011;3276;48.490;9.222;2023-09-18T09:01:08;5.47;;;1.83;;
6485;SDS011;3276;48.490;9.222;2023-09-18T09:03:36;2.90;;;1.70;;
6485;SDS011;3276;48.490;9.222;2023-09-18T09:06:03;3.03;;;1.47;;
6485;SDS011;3276;48.490;9.222;2023-09-18T09:08:29;2.97;;;1.10;;
6485;SDS011;3276;48.490;9.222;2023-09-18T09:10:55;3.10;;;1.20;;
6485;SDS011;3276;48.490;9.222;2023-09-18T09:13:24;4.03;;;1.07;;
6485;SDS011;3276;48.490;9.222;2023-09-18T09:15:53;5.83;;;1.50;;
6485;SDS011;3276;48.490;9.222;2023-09-18T09:18:24;4.00;;;1.30;;
6485;SDS011;3276;48.490;9.222;2023-09-18T09:23:22;3.90;;;1.00;;
6485;SDS011;3276;48.490;9.222;2023-09-18T09:25:48;2.17;;;0.90;;
6485;SDS011;3276;48.490;9.222;2023-09-18T09:28:14;2.23;;;1.10;;
6485;SDS011;3276;48.490;9.222;2023-09-18T09:30:41;1.97;;;1.10;;
6485;SDS011;3276;48.490;9.222;2023-09-18T09:33:07;2.10;;;0.97;;
6485;SDS011;3276;48.490;9.222;2023-09-18T09:35:36;2.13;;;0.73;;
6485;SDS011;3276;48.490;9.222;2023-09-18T09:38:10;2.33;;;1.03;;
6485;SDS011;3276;48.490;9.222;2023-09-18T09:40:38;2.30;;;0.97;;
6485;SDS011;3276;48.490;9.222;2023-09-18T09:43:07;2.70;;;1.03;;
6485;SDS011;3276;48.490;9.222;2023-09-18T09:45:33;2.97;;;1.13;;
6485;SDS011;3276;48.490;9.222;2023-09-18T09:48:03;2.00;;;0.80;;
6485;SDS011;3276;48.490;9.222;2023-09-18T09:50:30;3.80;;;1.40;;
6485;SDS011;3276;48.490;9.222;2023-09-18T09:52:57;5.63;;;1.70;;
6485;SDS011;3276;48.490;9.222;2023-09-18T09:57:51;4.80;;;1.67;;
6485;SDS011;3276;48.490;9.222;2023-09-18T10:00:18;4.17;;;1.47;;
6485;SDS011;3276;48.490;9.222;2023-09-18T10:02:59;3.60;;;1.33;;
6485;SDS011;3276;48.490;9.222;2023-09-18T10:05:27;2.60;;;1.07;;
6485;SDS011;3276;48.490;9.222;2023-09-18T10:07:59;2.07;;;1.00;;
6485;SDS011;3276;48.490;9.222;2023-09-18T10:10:34;2.63;;;1.10;;
6485;SDS011;3276;48.490;9.222;2023-09-18T10:15:55;4.37;;;1.70;;
6485;SDS011;3276;48.490;9.222;2023-09-18T10:18:28;2.40;;;1.00;;
6485;SDS011;3276;48.490;9.222;2023-09-18T10:24:14;2.60;;;1.30;;
6485;SDS011;3276;48.490;9.222;2023-09-18T10:26:48;2.93;;;1.40;;
6485;SDS011;3276;48.490;9.222;2023-09-18T10:29:19;4.77;;;0.90;;
6485;SDS011;3276;48.490;9.222;2023-09-18T10:31:45;1.80;;;0.80;;
6485;SDS011;3276;48.490;9.222;2023-09-18T10:34:13;2.90;;;1.17;;
6485;SDS011;3276;48.490;9.222;2023-09-18T10:36:41;2.47;;;1.10;;
6485;SDS011;3276;48.490;9.222;2023-09-18T10:39:08;2.50;;;1.00;;
6485;SDS011;3276;48.490;9.222;2023-09-18T10:41:37;2.83;;;1.30;;
6485;SDS011;3276;48.490;9.222;2023-09-18T10:44:10;1.60;;;0.70;;
6485;SDS011;3276;48.490;9.222;2023-09-18T10:46:36;4.60;;;1.43;;
6485;SDS011;3276;48.490;9.222;2023-09-18T10:49:02;3.20;;;1.20;;
6485;SDS011;3276;48.490;9.222;2023-09-18T10:51:28;2.20;;;1.33;;
6485;SDS011;3276;48.490;9.222;2023-09-18T10:53:56;2.37;;;0.90;;
6485;SDS011;3276;48.490;9.222;2023-09-18T10:56:22;4.03;;;1.50;;
6485;SDS011;3276;48.490;9.222;2023-09-18T10:58:55;2.50;;;1.07;;
6485;SDS011;3276;48.490;9.222;2023-09-18T11:01:24;3.07;;;1.30;;
6485;SDS011;3276;48.490;9.222;2023-09-18T11:03:52;4.10;;;1.13;;
6485;SDS011;3276;48.490;9.222;2023-09-18T11:06:20;2.27;;;1.17;;
6485;SDS011;3276;48.490;9.222;2023-09-18T11:08:51;3.10;;;0.90;;
6485;SDS011;3276;48.490;9.222;2023-09-18T11:11:26;3.27;;;1.23;;
6485;SDS011;3276;48.490;9.222;2023-09-18T11:13:54;3.07;;;1.30;;
6485;SDS011;3276;48.490;9.222;2023-09-18T11:18:53;2.80;;;1.43;;
6485;SDS011;3276;48.490;9.222;2023-09-18T11:21:26;2.50;;;1.20;;
6485;SDS011;3276;48.490;9.222;2023-09-18T11:24:02;7.80;;;1.33;;
6485;SDS011;3276;48.490;9.222;2023-09-18T11:26:36;3.20;;;1.00;;
6485;SDS011;3276;48.490;9.222;2023-09-18T11:29:05;5.57;;;1.50;;
6485;SDS011;3276;48.490;9.222;2023-09-18T11:31:47;12.37;;;2.93;;
6485;SDS011;3276;48.490;9.222;2023-09-18T11:36:47;3.10;;;1.43;;
6485;SDS011;3276;48.490;9.222;2023-09-18T11:39:14;3.80;;;1.43;;
6485;SDS011;3276;48.490;9.222;2023-09-18T11:42:08;4.53;;;1.37;;
6485;SDS011;3276;48.490;9.222;2023-09-18T11:44:35;3.50;;;1.50;;
6485;SDS011;3276;48.490;9.222;2023-09-18T11:47:06;3.77;;;1.07;;
6485;SDS011;3276;48.490;9.222;2023-09-18T11:49:37;2.10;;;1.10;;
6485;SDS011;3276;48.490;9.222;2023-09-18T11:52:06;2.40;;;1.40;;
6485;SDS011;3276;48.490;9.222;2023-09-18T11:54:32;3.70;;;1.20;;
6485;SDS011;3276;48.490;9.222;2023-09-18T11:57:02;2.40;;;1.27;;
6485;SDS011;3276;48.490;9.222;2023-09-18T11:59:33;2.07;;;1.03;;
6485;SDS011;3276;48.490;9.222;2023-09-18T12:02:04;2.63;;;1.37;;
6485;SDS011;3276;48.490;9.222;2023-09-18T12:04:31;2.70;;;1.50;;
6485;SDS011;3276;48.490;9.222;2023-09-18T12:06:58;2.47;;;1.27;;
6485;SDS011;3276;48.490;9.222;2023-09-18T12:09:28;2.77;;;1.37;;
6485;SDS011;3276;48.490;9.222;2023-09-18T12:11:55;2.77;;;1.03;;
6485;SDS011;3276;48.490;9.222;2023-09-18T12:14:22;4.53;;;1.57;;
6485;SDS011;3276;48.490;9.222;2023-09-18T12:16:48;3.47;;;1.17;;
6485;SDS011;3276;48.490;9.222;2023-09-18T12:19:18;4.50;;;1.40;;
6485;SDS011;3276;48.490;9.222;2023-09-18T12:21:47;2.87;;;1.50;;
6485;SDS011;3276;48.490;9.222;2023-09-18T12:24:14;2.90;;;1.20;;
6485;SDS011;3276;48.490;9.222;2023-09-18T12:26:40;2.03;;;1.30;;
6485;SDS011;3276;48.490;9.222;2023-09-18T12:29:06;2.93;;;0.80;;
6485;SDS011;3276;48.490;9.222;2023-09-18T12:31:32;2.97;;;1.40;;
6485;SDS011;3276;48.490;9.222;2023-09-18T12:33:58;2.80;;;1.40;;
6485;SDS011;3276;48.490;9.222;2023-09-18T12:36:25;2.70;;;0.97;;
6485;SDS011;3276;48.490;9.222;2023-09-18T12:38:57;4.27;;;1.57;;
6485;SDS011;3276;48.490;9.222;2023-09-18T12:41:25;4.60;;;1.87;;
6485;SDS011;3276;48.490;9.222;2023-09-18T12:43:51;3.20;;;1.23;;
6485;SDS011;3276;48.490;9.222;2023-09-18T12:46:19;2.07;;;1.67;;
6485;SDS011;3276;48.490;9.222;2023-09-18T12:48:46;1.70;;;1.00;;
6485;SDS011;3276;48.490;9.222;2023-09-18T12:51:12;2.20;;;1.40;;
6485;SDS011;3276;48.490;9.222;2023-09-18T12:53:39;2.67;;;1.70;;
6485;SDS011;3276;48.490;9.222;2023-09-18T12:56:08;2.47;;;1.50;;
6485;SDS011;3276;48.490;9.222;2023-09-18T12:58:37;3.03;;;1.70;;
6485;SDS011;3276;48.490;9.222;2023-09-18T13:01:07;4.30;;;1.33;;
6485;SDS011;3276;48.490;9.222;2023-09-18T13:03:41;4.33;;;1.67;;
6485;SDS011;3276;48.490;9.222;2023-09-18T13:06:08;3.10;;;1.57;;
6485;SDS011;3276;48.490;9.222;2023-09-18T13:08:35;2.20;;;1.27;;
6485;SDS011;3276;48.490;9.222;2023-09-18T13:11:01;2.30;;;1.33;;
6485;SDS011;3276;48.490;9.222;2023-09-18T13:13:31;3.37;;;2.23;;
6485;SDS011;3276;48.490;9.222;2023-09-18T13:15:58;2.90;;;1.17;;
6485;SDS011;3276;48.490;9.222;2023-09-18T13:18:24;2.90;;;1.50;;
6485;SDS011;3276;48.490;9.222;2023-09-18T13:20:50;2.90;;;1.50;;
6485;SDS011;3276;48.490;9.222;2023-09-18T13:23:16;5.53;;;2.70;;
6485;SDS011;3276;48.490;9.222;2023-09-18T13:25:43;3.30;;;1.80;;
6485;SDS011;3276;48.490;9.222;2023-09-18T13:28:11;4.70;;;1.60;;
6485;SDS011;3276;48.490;9.222;2023-09-18T13:30:38;2.93;;;1.77;;
6485;SDS011;3276;48.490;9.222;2023-09-18T13:33:05;2.53;;;1.40;;
6485;SDS011;3276;48.490;9.222;2023-09-18T13:35:35;2.33;;;1.50;;
6485;SDS011;3276;48.490;9.222;2023-09-18T13:38:03;2.37;;;1.33;;
6485;SDS011;3276;48.490;9.222;2023-09-18T13:40:31;3.63;;;1.07;;
6485;SDS011;3276;48.490;9.222;2023-09-18T13:42:58;3.10;;;1.93;;
6485;SDS011;3276;48.490;9.222;2023-09-18T13:45:24;2.47;;;1.53;;
6485;SDS011;3276;48.490;9.222;2023-09-18T13:47:49;10.03;;;2.17;;
6485;SDS011;3276;48.490;9.222;2023-09-18T13:50:16;2.80;;;1.30;;
6485;SDS011;3276;48.490;9.222;2023-09-18T13:52:42;2.73;;;1.50;;
6485;SDS011;3276;48.490;9.222;2023-09-18T13:55:07;2.73;;;1.20;;
6485;SDS011;3276;48.490;9.222;2023-09-18T13:57:34;3.50;;;1.57;;
6485;SDS011;3276;48.490;9.222;2023-09-18T14:00:01;2.03;;;1.43;;
6485;SDS011;3276;48.490;9.222;2023-09-18T14:04:57;2.20;;;1.40;;
6485;SDS011;3276;48.490;9.222;2023-09-18T14:07:23;3.60;;;1.60;;
6485;SDS011;3276;48.490;9.222;2023-09-18T14:09:48;8.10;;;2.00;;
6485;SDS011;3276;48.490;9.222;2023-09-18T14:12:15;3.30;;;1.60;;
6485;SDS011;3276;48.490;9.222;2023-09-18T14:14:41;3.50;;;1.80;;
6485;SDS011;3276;48.490;9.222;2023-09-18T14:17:10;2.43;;;1.67;;
6485;SDS011;3276;48.490;9.222;2023-09-18T14:19:36;3.60;;;1.80;;
6485;SDS011;3276;48.490;9.222;2023-09-18T14:22:05;1.80;;;1.23;;
6485;SDS011;3276;48.490;9.222;2023-09-18T14:24:32;4.07;;;1.60;;
6485;SDS011;3276;48.490;9.222;2023-09-18T14:26:59;3.03;;;1.57;;
6485;SDS011;3276;48.490;9.222;2023-09-18T14:29:25;3.60;;;1.70;;
6485;SDS011;3276;48.490;9.222;2023-09-18T14:31:51;2.80;;;1.87;;
6485;SDS011;3276;48.490;9.222;2023-09-18T14:34:17;2.57;;;1.40;;
6485;SDS011;3276;48.490;9.222;2023-09-18T14:36:43;2.20;;;1.73;;
6485;SDS011;3276;48.490;9.222;2023-09-18T14:39:09;3.00;;;1.43;;
6485;SDS011;3276;48.490;9.222;2023-09-18T14:41:38;2.23;;;1.53;;
6485;SDS011;3276;48.490;9.222;2023-09-18T14:44:05;3.73;;;1.37;;
6485;SDS011;3276;48.490;9.222;2023-09-18T14:46:33;3.73;;;1.30;;
6485;SDS011;3276;48.490;9.222;2023-09-18T14:49:00;2.83;;;1.63;;
6485;SDS011;3276;48.490;9.222;2023-09-18T14:51:26;3.80;;;1.60;;
6485;SDS011;3276;48.490;9.222;2023-09-18T14:53:53;2.73;;;1.73;;
6485;SDS011;3276;48.490;9.222;2023-09-18T14:56:19;2.80;;;1.23;;
6485;SDS011;3276;48.490;9.222;2023-09-18T14:58:45;2.60;;;1.60;;
6485;SDS011;3276;48.490;9.222;2023-09-18T15:01:11;2.00;;;1.30;;
6485;SDS011;3276;48.490;9.222;2023-09-18T15:03:37;2.93;;;1.40;;
6485;SDS011;3276;48.490;9.222;2023-09-18T15:06:03;3.07;;;1.67;;
6485;SDS011;3276;48.490;9.222;2023-09-18T15:08:28;4.53;;;1.60;;
6485;SDS011;3276;48.490;9.222;2023-09-18T15:10:54;3.10;;;1.60;;
6485;SDS011;3276;48.490;9.222;2023-09-18T15:13:20;2.47;;;1.23;;
6485;SDS011;3276;48.490;9.222;2023-09-18T15:15:45;2.90;;;1.53;;
6485;SDS011;3276;48.490;9.222;2023-09-18T15:18:11;3.27;;;2.17;;
6485;SDS011;3276;48.490;9.222;2023-09-18T15:20:37;3.50;;;2.03;;
6485;SDS011;3276;48.490;9.222;2023-09-18T15:23:04;2.80;;;1.43;;
6485;SDS011;3276;48.490;9.222;2023-09-18T15:25:30;2.47;;;1.50;;
6485;SDS011;3276;48.490;9.222;2023-09-18T15:27:57;3.23;;;1.30;;
6485;SDS011;3276;48.490;9.222;2023-09-18T15:30:22;2.10;;;1.30;;
6485;SDS011;3276;48.490;9.222;2023-09-18T15:32:50;2.40;;;1.47;;
6485;SDS011;3276;48.490;9.222;2023-09-18T15:35:21;2.57;;;1.37;;
6485;SDS011;3276;48.490;9.222;2023-09-18T15:37:50;3.20;;;1.40;;
6485;SDS011;3276;48.490;9.222;2023-09-18T15:40:17;2.07;;;1.10;;